Aviation Digital Data Service (ADDS)

Output produced by METARs form (0436 UTC 14 December 2017)
found at http://aviationweather.gov/adds/metars/
 
METAR text: GVAC 140400Z 06011KT 9999 BKN014 22/13 Q1017 NOSIG
Conditions at: GVAC (SAL ISL/AMILCAR , CV) observed 0400 UTC 14 December 2017
Temperature: 22.0°C (72°F)
Dewpoint: 13.0°C (55°F) [RH = 57%]
Pressure (altimeter): 30.03 inches Hg (1017.0 mb)
Winds: from the ENE (60 degrees) at 13 MPH (11 knots; 5.7 m/s)
Visibility: 6 or more miles (10+ km)
Ceiling: 1400 feet AGL
Clouds: broken clouds at 1400 feet AGL
Weather: no significant weather observed at this time

METAR text: GVAC 140300Z 08012KT 9999 BKN014 22/13 Q1017 NOSIG
Conditions at: GVAC (SAL ISL/AMILCAR , CV) observed 0300 UTC 14 December 2017
Temperature: 22.0°C (72°F)
Dewpoint: 13.0°C (55°F) [RH = 57%]
Pressure (altimeter): 30.03 inches Hg (1017.0 mb)
Winds: from the E (80 degrees) at 14 MPH (12 knots; 6.2 m/s)
Visibility: 6 or more miles (10+ km)
Ceiling: 1400 feet AGL
Clouds: broken clouds at 1400 feet AGL
Weather: no significant weather observed at this time

METAR text: GVAC 140200Z 06012KT 9999 BKN014 22/12 Q1018 NOSIG
Conditions at: GVAC (SAL ISL/AMILCAR , CV) observed 0200 UTC 14 December 2017
Temperature: 22.0°C (72°F)
Dewpoint: 12.0°C (54°F) [RH = 53%]
Pressure (altimeter): 30.06 inches Hg (1018.0 mb)
Winds: from the ENE (60 degrees) at 14 MPH (12 knots; 6.2 m/s)
Visibility: 6 or more miles (10+ km)
Ceiling: 1400 feet AGL
Clouds: broken clouds at 1400 feet AGL
Weather: no significant weather observed at this time

METAR text: GVAC 140100Z 07016KT 9999 BKN014 22/14 Q1018 NOSIG
Conditions at: GVAC (SAL ISL/AMILCAR , CV) observed 0100 UTC 14 December 2017
Temperature: 22.0°C (72°F)
Dewpoint: 14.0°C (57°F) [RH = 60%]
Pressure (altimeter): 30.06 inches Hg (1018.0 mb)
Winds: from the ENE (70 degrees) at 18 MPH (16 knots; 8.3 m/s)
Visibility: 6 or more miles (10+ km)
Ceiling: 1400 feet AGL
Clouds: broken clouds at 1400 feet AGL
Weather: no significant weather observed at this time

METAR text: GVAC 140000Z 07015KT 9999 BKN014 22/14 Q1018 NOSIG
Conditions at: GVAC (SAL ISL/AMILCAR , CV) observed 0000 UTC 14 December 2017
Temperature: 22.0°C (72°F)
Dewpoint: 14.0°C (57°F) [RH = 60%]
Pressure (altimeter): 30.06 inches Hg (1018.0 mb)
Winds: from the ENE (70 degrees) at 17 MPH (15 knots; 7.8 m/s)
Visibility: 6 or more miles (10+ km)
Ceiling: 1400 feet AGL
Clouds: broken clouds at 1400 feet AGL
Weather: no significant weather observed at this time

METAR text: GVAC 132300Z 08015KT 9999 BKN014 23/15 Q1018 NOSIG
Conditions at: GVAC (SAL ISL/AMILCAR , CV) observed 2300 UTC 13 December 2017
Temperature: 23.0°C (73°F)
Dewpoint: 15.0°C (59°F) [RH = 61%]
Pressure (altimeter): 30.06 inches Hg (1018.0 mb)
Winds: from the E (80 degrees) at 17 MPH (15 knots; 7.8 m/s)
Visibility: 6 or more miles (10+ km)
Ceiling: 1400 feet AGL
Clouds: broken clouds at 1400 feet AGL
Weather: no significant weather observed at this time

METAR text: GVAC 132200Z 07016KT 9999 BKN014 22/15 Q1018 NOSIG
Conditions at: GVAC (SAL ISL/AMILCAR , CV) observed 2200 UTC 13 December 2017
Temperature: 22.0°C (72°F)
Dewpoint: 15.0°C (59°F) [RH = 65%]
Pressure (altimeter): 30.06 inches Hg (1018.0 mb)
Winds: from the ENE (70 degrees) at 18 MPH (16 knots; 8.3 m/s)
Visibility: 6 or more miles (10+ km)
Ceiling: 1400 feet AGL
Clouds: broken clouds at 1400 feet AGL
Weather: no significant weather observed at this time

METAR text: GVAC 132100Z 06017KT 9999 BKN014 23/15 Q1017 NOSIG
Conditions at: GVAC (SAL ISL/AMILCAR , CV) observed 2100 UTC 13 December 2017
Temperature: 23.0°C (73°F)
Dewpoint: 15.0°C (59°F) [RH = 61%]
Pressure (altimeter): 30.03 inches Hg (1017.0 mb)
Winds: from the ENE (60 degrees) at 20 MPH (17 knots; 8.8 m/s)
Visibility: 6 or more miles (10+ km)
Ceiling: 1400 feet AGL
Clouds: broken clouds at 1400 feet AGL
Weather: no significant weather observed at this time

METAR text: GVAC 132000Z 07020KT 9999 BKN014 23/17 Q1016 NOSIG
Conditions at: GVAC (SAL ISL/AMILCAR , CV) observed 2000 UTC 13 December 2017
Temperature: 23.0°C (73°F)
Dewpoint: 17.0°C (63°F) [RH = 69%]
Pressure (altimeter): 30.00 inches Hg (1016.0 mb)
Winds: from the ENE (70 degrees) at 23 MPH (20 knots; 10.4 m/s)
Visibility: 6 or more miles (10+ km)
Ceiling: 1400 feet AGL
Clouds: broken clouds at 1400 feet AGL
Weather: no significant weather observed at this time

METAR text: GVAC 131900Z 07017KT 9999 BKN014 24/17 Q1016 NOSIG
Conditions at: GVAC (SAL ISL/AMILCAR , CV) observed 1900 UTC 13 December 2017
Temperature: 24.0°C (75°F)
Dewpoint: 17.0°C (63°F) [RH = 65%]
Pressure (altimeter): 30.00 inches Hg (1016.0 mb)
Winds: from the ENE (70 degrees) at 20 MPH (17 knots; 8.8 m/s)
Visibility: 6 or more miles (10+ km)
Ceiling: 1400 feet AGL
Clouds: broken clouds at 1400 feet AGL
Weather: no significant weather observed at this time

METAR text: GVAC 131800Z 07018KT 9999 BKN014 24/17 Q1015 NOSIG
Conditions at: GVAC (SAL ISL/AMILCAR , CV) observed 1800 UTC 13 December 2017
Temperature: 24.0°C (75°F)
Dewpoint: 17.0°C (63°F) [RH = 65%]
Pressure (altimeter): 29.97 inches Hg (1015.0 mb)
Winds: from the ENE (70 degrees) at 21 MPH (18 knots; 9.4 m/s)
Visibility: 6 or more miles (10+ km)
Ceiling: 1400 feet AGL
Clouds: broken clouds at 1400 feet AGL
Weather: no significant weather observed at this time

METAR text: GVAC 131700Z 08020KT 9999 BKN014 26/18 Q1015 NOSIG
Conditions at: GVAC (SAL ISL/AMILCAR , CV) observed 1700 UTC 13 December 2017
Temperature: 26.0°C (79°F)
Dewpoint: 18.0°C (64°F) [RH = 61%]
Pressure (altimeter): 29.97 inches Hg (1015.0 mb)
Winds: from the E (80 degrees) at 23 MPH (20 knots; 10.4 m/s)
Visibility: 6 or more miles (10+ km)
Ceiling: 1400 feet AGL
Clouds: broken clouds at 1400 feet AGL
Weather: no significant weather observed at this time